Stolt Ami — 3EAZ5 — position and weather

sailwx.info

Track history (hours):
 
Tides and Currents Weather Stations Pressure Air Temp Water Temp Dewpoint Dewpoint Depression Visibility Wind Speed Wind Dir Waves Ship Positions

Stolt Ami

Last reported at 2016-Jan-27 08:07 UTC. Time now 2016-Feb-14 08:11 UTC.
Position N 29°21' W 094°47'.
Warning: this ship's position is 18 days out of date.

Length 143 m; draft 9.1 m.

Type: Ship (hazmat cat B). MMSI: 371392514.

Date/timePositionNaut miles runAvg speedWind from/ knotsBaromVisibWave heightAir tempDewpointWater temp
2016-Jan-27 08:07N 29°21' W 094°47'712.3
2016-Jan-27 07:33N 29°27' W 094°51'1111.2
2016-Jan-27 06:33N 29°37' W 094°57'9 8.9
2016-Jan-27 05:33N 29°44' W 095°03'2 0.1
2016-Jan-25 16:26N 29°45' W 095°06'4 4.6
2016-Jan-25 15:33N 29°44' W 095°01'9 9.4
2016-Jan-25 14:33N 29°35' W 094°56'1111.3
2016-Jan-25 13:33N 29°26' W 094°50'4 0.2
2016-Jan-24 19:24N 29°23' W 094°53'1 0.0
2016-Jan-23 21:32N 29°23' W 094°52'19 2.9
2016-Jan-23 15:13N 29°16' W 094°32'14 0.6
2016-Jan-22 14:18N 29°21' W 094°47'1013.9
2016-Jan-22 13:33N 29°30' W 094°53'9 8.7
2016-Jan-22 12:33N 29°37' W 094°59'2 2.0
2016-Jan-22 11:32N 29°37' W 095°02'0 0.0
2016-Jan-22 10:20N 29°37' W 095°02'0 0.0
2016-Jan-22 09:32N 29°37' W 095°02'0 0.0
2016-Jan-22 08:32N 29°37' W 095°02'0 0.0
2016-Jan-22 07:32N 29°37' W 095°02'0 0.0
2016-Jan-22 06:32N 29°37' W 095°02'0 0.0
2016-Jan-22 05:32N 29°37' W 095°02'0 0.0
2016-Jan-22 04:32N 29°37' W 095°02'0 0.0
2016-Jan-22 03:32N 29°37' W 095°02'0 0.0
2016-Jan-22 02:32N 29°37' W 095°02'0 0.0
2016-Jan-22 01:26N 29°37' W 095°02'0 0.0
2016-Jan-22 00:32N 29°37' W 095°02'1 1.4
2016-Jan-21 23:33N 29°37' W 094°60'1010.1
2016-Jan-21 22:33N 29°30' W 094°52'  
2016-Jan-19 06:33N 29°21' W 094°47'1211.9
2016-Jan-19 05:33N 29°32' W 094°53'1110.9
2016-Jan-19 04:33N 29°41' W 094°59'7 7.0
2016-Jan-19 03:33N 29°45' W 095°06'1 0.0
2016-Jan-18 10:22N 29°45' W 095°06'3 3.1
2016-Jan-18 09:33N 29°44' W 095°03'9 9.1
2016-Jan-18 08:33N 29°37' W 094°57'1212.3
2016-Jan-18 07:33N 29°26' W 094°50'  
Track history (hours):
 
Tides and Currents Weather Stations Pressure Air Temp Water Temp Dewpoint Dewpoint Depression Visibility Wind Speed Wind Dir Waves Ship Positions

Stolt Ami

Last reported at 2016-Jan-27 08:07 UTC. Time now 2016-Feb-14 08:11 UTC.
Position N 29°21' W 094°47'.
Warning: this ship's position is 18 days out of date.

Length 143 m; draft 9.1 m.

Type: Ship (hazmat cat B). MMSI: 371392514.

Date/timePositionNaut miles runAvg speedWind from/ knotsBaromVisibWave heightAir tempDewpointWater temp
2016-Jan-27 08:07N 29°21' W 094°47'712.3
2016-Jan-27 07:33N 29°27' W 094°51'1111.2
2016-Jan-27 06:33N 29°37' W 094°57'9 8.9
2016-Jan-27 05:33N 29°44' W 095°03'2 0.1
2016-Jan-25 16:26N 29°45' W 095°06'4 4.6
2016-Jan-25 15:33N 29°44' W 095°01'9 9.4
2016-Jan-25 14:33N 29°35' W 094°56'1111.3
2016-Jan-25 13:33N 29°26' W 094°50'4 0.2
2016-Jan-24 19:24N 29°23' W 094°53'1 0.0
2016-Jan-23 21:32N 29°23' W 094°52'19 2.9
2016-Jan-23 15:13N 29°16' W 094°32'14 0.6
2016-Jan-22 14:18N 29°21' W 094°47'1013.9
2016-Jan-22 13:33N 29°30' W 094°53'9 8.7
2016-Jan-22 12:33N 29°37' W 094°59'2 2.0
2016-Jan-22 11:32N 29°37' W 095°02'0 0.0
2016-Jan-22 10:20N 29°37' W 095°02'0 0.0
2016-Jan-22 09:32N 29°37' W 095°02'0 0.0
2016-Jan-22 08:32N 29°37' W 095°02'0 0.0
2016-Jan-22 07:32N 29°37' W 095°02'0 0.0
2016-Jan-22 06:32N 29°37' W 095°02'0 0.0
2016-Jan-22 05:32N 29°37' W 095°02'0 0.0
2016-Jan-22 04:32N 29°37' W 095°02'0 0.0
2016-Jan-22 03:32N 29°37' W 095°02'0 0.0
2016-Jan-22 02:32N 29°37' W 095°02'0 0.0
2016-Jan-22 01:26N 29°37' W 095°02'0 0.0
2016-Jan-22 00:32N 29°37' W 095°02'1 1.4
2016-Jan-21 23:33N 29°37' W 094°60'1010.1
2016-Jan-21 22:33N 29°30' W 094°52'  
2016-Jan-19 06:33N 29°21' W 094°47'1211.9
2016-Jan-19 05:33N 29°32' W 094°53'1110.9
2016-Jan-19 04:33N 29°41' W 094°59'7 7.0
2016-Jan-19 03:33N 29°45' W 095°06'1 0.0
2016-Jan-18 10:22N 29°45' W 095°06'3 3.1
2016-Jan-18 09:33N 29°44' W 095°03'9 9.1
2016-Jan-18 08:33N 29°37' W 094°57'1212.3
2016-Jan-18 07:33N 29°26' W 094°50'  

Dump ship's entire track history